Time,TemperatureF,DewpointF,PressureIn,WindDirection,WindDirectionDegrees,WindSpeedMPH,WindSpeedGustMPH,Humidity,HourlyPrecipIn,Conditions,Clouds,dailyrainin,SoftwareType,DateUTC
2013-01-07 00:04:00,33.0,22.5,30.33,ESE,115,0.0,0.0,65,0.00,,---,0.00,VWS V14.00,2013-01-07 06:04:00,
2013-01-07 00:07:00,32.1,23.1,30.33,South,172,0.0,0.0,69,0.00,,---,0.00,VWS V14.00,2013-01-07 06:07:00,
2013-01-07 00:09:00,32.6,22.9,30.33,South,172,0.0,0.0,67,0.00,,---,0.00,VWS V14.00,2013-01-07 06:09:00,
2013-01-07 00:14:00,32.2,23.5,30.33,South,186,0.0,0.0,70,0.00,,---,0.00,VWS V14.00,2013-01-07 06:14:00,
2013-01-07 00:15:00,32.1,22.8,30.33,South,172,0.0,0.0,68,0.00,,---,0.00,VWS V14.00,2013-01-07 06:15:00,
2013-01-07 00:19:00,32.0,23.3,30.33,South,186,0.0,0.0,70,0.00,,---,0.00,VWS V14.00,2013-01-07 06:19:00,
2013-01-07 00:20:00,32.3,23.6,30.33,South,186,0.0,0.0,70,0.00,,---,0.00,VWS V14.00,2013-01-07 06:20:00,
2013-01-07 00:21:00,32.0,23.7,30.33,South,186,0.0,0.0,71,0.00,,---,0.00,VWS V14.00,2013-01-07 06:21:00,
2013-01-07 00:23:00,31.9,23.6,30.33,South,186,0.0,0.0,71,0.00,,---,0.00,VWS V14.00,2013-01-07 06:23:00,
2013-01-07 00:25:00,32.2,23.5,30.33,South,186,0.0,0.0,70,0.00,,---,0.00,VWS V14.00,2013-01-07 06:25:00,
2013-01-07 00:27:00,31.8,23.5,30.33,South,186,0.0,0.0,71,0.00,,---,0.00,VWS V14.00,2013-01-07 06:27:00,
2013-01-07 00:30:00,32.0,23.3,30.33,South,186,0.0,0.0,70,0.00,,---,0.00,VWS V14.00,2013-01-07 06:30:00,
2013-01-07 00:33:00,31.3,23.0,30.31,South,186,0.0,0.0,71,0.00,,---,0.00,VWS V14.00,2013-01-07 06:33:00,
2013-01-07 00:36:00,31.8,23.5,30.33,South,186,0.0,0.0,71,0.00,,---,0.00,VWS V14.00,2013-01-07 06:36:00,
2013-01-07 00:38:00,30.9,22.6,30.31,South,186,0.0,0.0,71,0.00,,---,0.00,VWS V14.00,2013-01-07 06:38:00,
2013-01-07 00:41:00,31.5,23.2,30.31,South,186,0.0,0.0,71,0.00,,---,0.00,VWS V14.00,2013-01-07 06:41:00,
2013-01-07 00:44:00,30.4,22.8,30.31,South,186,0.0,0.0,73,0.00,,---,0.00,VWS V14.00,2013-01-07 06:44:00,
2013-01-07 00:47:00,31.0,22.7,30.31,South,186,0.0,0.0,71,0.00,,---,0.00,VWS V14.00,2013-01-07 06:47:00,
2013-01-07 00:48:00,30.2,22.9,30.31,South,186,0.0,0.0,74,0.00,,---,0.00,VWS V14.00,2013-01-07 06:48:00,
2013-01-07 00:50:00,30.2,22.9,30.31,South,186,0.0,0.0,74,0.00,,---,0.00,VWS V14.00,2013-01-07 06:50:00,
2013-01-07 00:52:00,30.5,22.9,30.31,South,186,0.0,0.0,73,0.00,,---,0.00,VWS V14.00,2013-01-07 06:52:00,
2013-01-07 00:53:00,30.2,22.9,30.31,South,186,0.0,0.0,74,0.00,,---,0.00,VWS V14.00,2013-01-07 06:53:00,
2013-01-07 00:56:00,30.3,23.0,30.31,South,186,0.0,0.0,74,0.00,,---,0.00,VWS V14.00,2013-01-07 06:56:00,
2013-01-07 00:57:00,30.2,22.6,30.31,South,186,0.0,0.0,73,0.00,,---,0.00,VWS V14.00,2013-01-07 06:57:00,
2013-01-07 01:01:00,30.1,22.8,30.32,South,186,0.0,0.0,74,0.00,,---,0.00,VWS V14.00,2013-01-07 07:01:00,
2013-01-07 01:02:00,30.2,22.9,30.31,South,186,0.0,0.0,74,0.00,,---,0.00,VWS V14.00,2013-01-07 07:02:00,
2013-01-07 01:04:00,30.2,23.2,30.32,South,186,0.0,0.0,75,0.00,,---,0.00,VWS V14.00,2013-01-07 07:04:00,
2013-01-07 01:08:00,30.2,22.9,30.31,South,186,0.0,0.0,74,0.00,,---,0.00,VWS V14.00,2013-01-07 07:08:00,
2013-01-07 01:13:00,30.2,23.2,30.32,South,186,0.0,0.0,75,0.00,,---,0.00,VWS V14.00,2013-01-07 07:13:00,
2013-01-07 01:19:00,30.1,22.8,30.32,South,186,0.0,0.0,74,0.00,,---,0.00,VWS V14.00,2013-01-07 07:19:00,
2013-01-07 01:22:00,29.7,22.8,30.31,South,186,0.0,0.0,75,0.00,,---,0.00,VWS V14.00,2013-01-07 07:22:00,
2013-01-07 01:24:00,29.9,22.6,30.32,South,186,0.0,0.0,74,0.00,,---,0.00,VWS V14.00,2013-01-07 07:24:00,
2013-01-07 01:29:00,29.8,22.9,30.31,South,186,0.0,0.0,75,0.00,,---,0.00,VWS V14.00,2013-01-07 07:29:00,
2013-01-07 01:35:00,29.6,22.7,30.31,South,186,0.0,0.0,75,0.00,,---,0.00,VWS V14.00,2013-01-07 07:35:00,
2013-01-07 01:41:00,29.4,22.5,30.30,South,186,0.0,0.0,75,0.00,,---,0.00,VWS V14.00,2013-01-07 07:41:00,
2013-01-07 01:46:00,29.5,22.6,30.30,South,186,0.0,0.0,75,0.00,,---,0.00,VWS V14.00,2013-01-07 07:46:00,
2013-01-07 01:51:00,29.8,22.9,30.30,South,186,0.0,0.0,75,0.00,,---,0.00,VWS V14.00,2013-01-07 07:51:00,
2013-01-07 01:57:00,30.2,22.9,30.30,South,186,0.0,0.0,74,0.00,,---,0.00,VWS V14.00,2013-01-07 07:57:00,
2013-01-07 02:02:00,30.6,23.0,30.30,South,186,0.0,0.0,73,0.00,,---,0.00,VWS V14.00,2013-01-07 08:02:00,
2013-01-07 02:04:00,30.9,22.6,30.30,South,186,0.0,0.0,71,0.00,,---,0.00,VWS V14.00,2013-01-07 08:04:00,
2013-01-07 02:07:00,30.5,22.9,30.30,South,186,0.0,0.0,73,0.00,,---,0.00,VWS V14.00,2013-01-07 08:07:00,
2013-01-07 02:12:00,30.8,22.9,30.30,South,186,0.0,0.0,72,0.00,,---,0.00,VWS V14.00,2013-01-07 08:12:00,
2013-01-07 02:17:00,31.1,22.8,30.30,South,186,0.0,0.0,71,0.00,,---,0.00,VWS V14.00,2013-01-07 08:17:00,
2013-01-07 02:23:00,31.2,22.6,30.30,South,186,0.0,0.0,70,0.00,,---,0.00,VWS V14.00,2013-01-07 08:23:00,
2013-01-07 02:28:00,31.1,22.5,30.30,South,186,0.0,0.0,70,0.00,,---,0.00,VWS V14.00,2013-01-07 08:28:00,
2013-01-07 02:34:00,31.2,22.6,30.30,South,186,0.0,0.0,70,0.00,,---,0.00,VWS V14.00,2013-01-07 08:34:00,
2013-01-07 02:39:00,31.3,22.7,30.30,South,186,0.0,0.0,70,0.00,,---,0.00,VWS V14.00,2013-01-07 08:39:00,
2013-01-07 02:44:00,31.2,22.6,30.29,South,186,0.0,0.0,70,0.00,,---,0.00,VWS V14.00,2013-01-07 08:44:00,
2013-01-07 02:50:00,31.0,24.3,30.29,South,186,0.0,0.0,76,0.00,,---,0.00,VWS V14.00,2013-01-07 08:50:00,
2013-01-07 02:51:00,30.3,22.4,30.28,South,186,0.0,0.0,72,0.00,,---,0.00,VWS V14.00,2013-01-07 08:51:00,
2013-01-07 02:53:00,30.3,22.4,30.28,South,186,0.0,0.0,72,0.00,,---,0.00,VWS V14.00,2013-01-07 08:53:00,
2013-01-07 02:55:00,30.8,22.5,30.28,South,186,0.0,0.0,71,0.00,,---,0.00,VWS V14.00,2013-01-07 08:55:00,
2013-01-07 02:56:00,30.4,22.5,30.28,South,186,0.0,0.0,72,0.00,,---,0.00,VWS V14.00,2013-01-07 08:56:00,
2013-01-07 03:00:00,30.3,22.4,30.28,South,186,0.0,0.0,72,0.00,,---,0.00,VWS V14.00,2013-01-07 09:00:00,
2013-01-07 03:01:00,30.7,22.4,30.28,South,186,0.0,0.0,71,0.00,,---,0.00,VWS V14.00,2013-01-07 09:01:00,
2013-01-07 03:05:00,30.3,22.4,30.28,South,186,0.0,0.0,72,0.00,,---,0.00,VWS V14.00,2013-01-07 09:05:00,
2013-01-07 03:07:00,31.0,22.7,30.28,South,186,0.0,0.0,71,0.00,,---,0.00,VWS V14.00,2013-01-07 09:07:00,
2013-01-07 03:10:00,30.6,22.3,30.28,South,186,0.0,0.0,71,0.00,,---,0.00,VWS V14.00,2013-01-07 09:10:00,
2013-01-07 03:15:00,31.0,22.7,30.28,South,186,0.0,0.0,71,0.00,,---,0.00,VWS V14.00,2013-01-07 09:15:00,
2013-01-07 03:20:00,31.0,22.4,30.28,South,186,0.0,0.0,70,0.00,,---,0.00,VWS V14.00,2013-01-07 09:20:00,
2013-01-07 03:25:00,30.8,22.2,30.27,South,186,0.0,0.0,70,0.00,,---,0.00,VWS V14.00,2013-01-07 09:25:00,
2013-01-07 03:30:00,30.3,23.0,30.27,South,186,0.0,0.0,74,0.00,,---,0.00,VWS V14.00,2013-01-07 09:30:00,
2013-01-07 03:36:00,30.0,22.4,30.27,South,186,0.0,0.0,73,0.00,,---,0.00,VWS V14.00,2013-01-07 09:36:00,
2013-01-07 03:41:00,29.7,22.1,30.27,South,186,0.0,0.0,73,0.00,,---,0.00,VWS V14.00,2013-01-07 09:41:00,
2013-01-07 03:47:00,29.2,22.0,30.27,South,186,0.0,0.0,74,0.00,,---,0.00,VWS V14.00,2013-01-07 09:47:00,
2013-01-07 03:52:00,29.0,22.1,30.27,South,186,0.0,0.0,75,0.00,,---,0.00,VWS V14.00,2013-01-07 09:52:00,
2013-01-07 03:57:00,28.8,21.9,30.27,South,186,0.0,0.0,75,0.00,,---,0.00,VWS V14.00,2013-01-07 09:57:00,
2013-01-07 04:02:00,28.9,23.2,30.27,South,186,0.0,0.0,79,0.00,,---,0.00,VWS V14.00,2013-01-07 10:02:00,
2013-01-07 04:07:00,29.1,23.7,30.27,South,186,0.0,0.0,80,0.00,,---,0.00,VWS V14.00,2013-01-07 10:07:00,
2013-01-07 04:12:00,28.9,22.6,30.27,South,186,0.0,0.0,77,0.00,,---,0.00,VWS V14.00,2013-01-07 10:12:00,
2013-01-07 04:18:00,28.8,22.2,30.27,South,186,0.0,0.0,76,0.00,,---,0.00,VWS V14.00,2013-01-07 10:18:00,
2013-01-07 04:23:00,28.8,22.2,30.27,South,186,0.0,0.0,76,0.00,,---,0.00,VWS V14.00,2013-01-07 10:23:00,
2013-01-07 04:28:00,28.7,22.1,30.27,South,186,0.0,0.0,76,0.00,,---,0.00,VWS V14.00,2013-01-07 10:28:00,
2013-01-07 04:33:00,28.7,22.4,30.27,South,186,0.0,0.0,77,0.00,,---,0.00,VWS V14.00,2013-01-07 10:33:00,
2013-01-07 04:39:00,28.7,22.4,30.27,South,186,0.0,0.0,77,0.00,,---,0.00,VWS V14.00,2013-01-07 10:39:00,
2013-01-07 04:44:00,28.5,22.2,30.26,South,186,0.0,0.0,77,0.00,,---,0.00,VWS V14.00,2013-01-07 10:44:00,
2013-01-07 04:49:00,28.3,22.0,30.26,South,186,0.0,0.0,77,0.00,,---,0.00,VWS V14.00,2013-01-07 10:49:00,
2013-01-07 04:55:00,28.1,21.8,30.26,South,186,0.0,0.0,77,0.00,,---,0.00,VWS V14.00,2013-01-07 10:55:00,
2013-01-07 05:01:00,28.1,22.1,30.26,South,186,0.0,0.0,78,0.00,,---,0.00,VWS V14.00,2013-01-07 11:01:00,
2013-01-07 05:06:00,28.1,22.1,30.26,South,186,0.0,0.0,78,0.00,,---,0.00,VWS V14.00,2013-01-07 11:06:00,
2013-01-07 05:11:00,28.0,22.0,30.26,South,186,0.0,0.0,78,0.00,,---,0.00,VWS V14.00,2013-01-07 11:11:00,
2013-01-07 05:16:00,27.9,21.9,30.26,South,186,0.0,0.0,78,0.00,,---,0.00,VWS V14.00,2013-01-07 11:16:00,
2013-01-07 05:21:00,27.8,21.9,30.26,South,186,0.0,0.0,78,0.00,,---,0.00,VWS V14.00,2013-01-07 11:21:00,
2013-01-07 05:27:00,27.5,21.9,30.26,South,186,0.0,0.0,79,0.00,,---,0.00,VWS V14.00,2013-01-07 11:27:00,
2013-01-07 05:33:00,27.4,22.0,30.26,South,186,0.0,0.0,80,0.00,,---,0.00,VWS V14.00,2013-01-07 11:33:00,
2013-01-07 05:39:00,27.3,21.7,30.26,South,186,0.0,0.0,79,0.00,,---,0.00,VWS V14.00,2013-01-07 11:39:00,
2013-01-07 05:45:00,27.0,21.4,30.27,South,186,0.0,0.0,79,0.00,,---,0.00,VWS V14.00,2013-01-07 11:45:00,
2013-01-07 05:50:00,26.7,21.1,30.27,South,186,0.0,0.0,79,0.00,,---,0.00,VWS V14.00,2013-01-07 11:50:00,
2013-01-07 05:55:00,26.5,21.2,30.27,South,186,0.0,0.0,80,0.00,,---,0.00,VWS V14.00,2013-01-07 11:55:00,
2013-01-07 06:01:00,26.3,21.3,30.27,South,186,0.0,0.0,81,0.00,,---,0.00,VWS V14.00,2013-01-07 12:01:00,
2013-01-07 06:06:00,26.3,21.3,30.27,South,186,0.0,0.0,81,0.00,,---,0.00,VWS V14.00,2013-01-07 12:06:00,
2013-01-07 06:12:00,26.1,21.1,30.27,South,186,0.0,0.0,81,0.00,,---,0.00,VWS V14.00,2013-01-07 12:12:00,
2013-01-07 06:17:00,26.0,21.0,30.27,South,186,0.0,0.0,81,0.00,,---,0.00,VWS V14.00,2013-01-07 12:17:00,
2013-01-07 06:22:00,25.8,20.8,30.27,South,186,0.0,0.0,81,0.00,,---,0.00,VWS V14.00,2013-01-07 12:22:00,
2013-01-07 06:27:00,25.6,20.9,30.27,South,186,0.0,0.0,82,0.00,,---,0.00,VWS V14.00,2013-01-07 12:27:00,
2013-01-07 06:32:00,25.4,20.7,30.27,South,186,0.0,0.0,82,0.00,,---,0.00,VWS V14.00,2013-01-07 12:32:00,
2013-01-07 06:37:00,25.3,20.9,30.27,South,186,0.0,0.0,83,0.00,,---,0.00,VWS V14.00,2013-01-07 12:37:00,
2013-01-07 06:43:00,25.4,21.2,30.27,South,186,0.0,0.0,84,0.00,,---,0.00,VWS V14.00,2013-01-07 12:43:00,
2013-01-07 06:49:00,25.6,21.5,30.27,South,186,0.0,0.0,84,0.00,,---,0.00,VWS V14.00,2013-01-07 12:49:00,
2013-01-07 06:54:00,25.7,21.5,30.27,South,186,0.0,0.0,84,0.00,,---,0.00,VWS V14.00,2013-01-07 12:54:00,
2013-01-07 06:59:00,25.7,21.3,30.27,South,186,0.0,0.0,83,0.00,,---,0.00,VWS V14.00,2013-01-07 12:59:00,
2013-01-07 07:05:00,25.7,21.3,30.27,South,186,0.0,0.0,83,0.00,,---,0.00,VWS V14.00,2013-01-07 13:05:00,
2013-01-07 07:11:00,25.6,21.5,30.27,South,186,0.0,0.0,84,0.00,,---,0.00,VWS V14.00,2013-01-07 13:11:00,
2013-01-07 07:17:00,25.6,21.5,30.27,South,186,0.0,0.0,84,0.00,,---,0.00,VWS V14.00,2013-01-07 13:17:00,
2013-01-07 07:23:00,25.8,21.6,30.27,South,186,0.0,0.0,84,0.00,,---,0.00,VWS V14.00,2013-01-07 13:23:00,
2013-01-07 07:29:00,26.0,21.8,30.27,South,186,0.0,0.0,84,0.00,,---,0.00,VWS V14.00,2013-01-07 13:29:00,
2013-01-07 07:35:00,26.3,22.1,30.27,South,182,0.0,0.0,84,0.00,,---,0.00,VWS V14.00,2013-01-07 13:35:00,
2013-01-07 07:41:00,26.4,22.0,30.28,South,182,0.0,0.0,83,0.00,,---,0.00,VWS V14.00,2013-01-07 13:41:00,
2013-01-07 07:47:00,26.2,21.8,30.28,South,182,0.0,0.0,83,0.00,,---,0.00,VWS V14.00,2013-01-07 13:47:00,
2013-01-07 07:53:00,26.5,22.0,30.28,South,182,0.0,0.0,83,0.00,,---,0.00,VWS V14.00,2013-01-07 13:53:00,
2013-01-07 07:59:00,27.0,22.5,30.28,South,179,0.0,0.0,83,0.00,,---,0.00,VWS V14.00,2013-01-07 13:59:00,
2013-01-07 08:04:00,27.4,22.6,30.28,South,179,0.0,0.0,82,0.00,,---,0.00,VWS V14.00,2013-01-07 14:04:00,
2013-01-07 08:09:00,27.8,23.0,30.28,South,179,0.0,0.0,82,0.00,,---,0.00,VWS V14.00,2013-01-07 14:09:00,
2013-01-07 08:15:00,28.5,23.4,30.28,South,173,0.0,0.0,81,0.00,,---,0.00,VWS V14.00,2013-01-07 14:15:00,
2013-01-07 08:20:00,29.0,23.3,30.28,South,172,0.0,0.0,79,0.00,,---,0.00,VWS V14.00,2013-01-07 14:20:00,
2013-01-07 08:26:00,29.2,23.5,30.28,SSE,167,0.0,0.0,79,0.00,,---,0.00,VWS V14.00,2013-01-07 14:26:00,
2013-01-07 08:31:00,29.5,23.8,30.28,SSE,167,0.0,0.0,79,0.00,,---,0.00,VWS V14.00,2013-01-07 14:31:00,
2013-01-07 08:36:00,30.0,24.0,30.28,ESE,119,2.0,2.0,78,0.00,,---,0.00,VWS V14.00,2013-01-07 14:36:00,
2013-01-07 08:41:00,30.5,24.5,30.29,SE,129,1.0,2.0,78,0.00,,---,0.00,VWS V14.00,2013-01-07 14:41:00,
2013-01-07 08:46:00,31.0,24.6,30.29,ESE,113,0.0,0.0,77,0.00,,---,0.00,VWS V14.00,2013-01-07 14:46:00,
2013-01-07 08:51:00,31.5,24.8,30.29,South,181,0.0,5.0,76,0.00,,---,0.00,VWS V14.00,2013-01-07 14:51:00,
2013-01-07 08:56:00,32.1,24.8,30.30,SSE,168,0.0,5.0,74,0.00,,---,0.00,VWS V14.00,2013-01-07 14:56:00,
2013-01-07 09:02:00,32.8,25.1,30.30,ESE,123,5.0,5.0,73,0.00,,---,0.00,VWS V14.00,2013-01-07 15:02:00,
2013-01-07 09:07:00,33.6,25.5,30.30,South,188,4.0,7.0,72,0.00,,---,0.00,VWS V14.00,2013-01-07 15:07:00,
2013-01-07 09:12:00,34.2,25.5,30.30,SE,133,5.0,10.0,70,0.00,,---,0.00,VWS V14.00,2013-01-07 15:12:00,
2013-01-07 09:17:00,34.4,25.3,30.30,SE,139,0.0,10.0,69,0.00,,---,0.00,VWS V14.00,2013-01-07 15:17:00,
2013-01-07 09:23:00,35.1,26.0,30.30,SSE,160,3.0,4.0,69,0.00,,---,0.00,VWS V14.00,2013-01-07 15:23:00,
2013-01-07 09:29:00,35.4,25.9,30.29,SSE,167,1.0,2.0,68,0.00,,---,0.00,VWS V14.00,2013-01-07 15:29:00,
2013-01-07 09:34:00,35.8,25.9,30.29,ESE,117,0.0,1.0,67,0.00,,---,0.00,VWS V14.00,2013-01-07 15:34:00,
2013-01-07 09:39:00,36.4,26.5,30.29,SSE,148,0.0,0.0,67,0.00,,---,0.00,VWS V14.00,2013-01-07 15:39:00,
2013-01-07 09:45:00,36.8,26.1,30.29,ESE,117,3.0,10.0,65,0.00,,---,0.00,VWS V14.00,2013-01-07 15:45:00,
2013-01-07 09:50:00,36.5,26.2,30.29,SSE,163,0.0,3.0,66,0.00,,---,0.00,VWS V14.00,2013-01-07 15:50:00,
2013-01-07 09:56:00,36.9,26.2,30.29,SE,140,4.0,7.0,65,0.00,,---,0.00,VWS V14.00,2013-01-07 15:56:00,
2013-01-07 10:01:00,36.8,26.5,30.29,SSW,202,10.0,10.0,66,0.00,,---,0.00,VWS V14.00,2013-01-07 16:01:00,
2013-01-07 10:06:00,36.9,26.2,30.29,SE,129,3.0,6.0,65,0.00,,---,0.00,VWS V14.00,2013-01-07 16:06:00,
2013-01-07 10:12:00,37.8,27.1,30.30,SSE,158,3.0,6.0,65,0.00,,---,0.00,VWS V14.00,2013-01-07 16:12:00,
2013-01-07 10:18:00,39.1,28.0,30.30,SSW,203,8.0,10.0,64,0.00,,---,0.00,VWS V14.00,2013-01-07 16:18:00,
2013-01-07 10:23:00,39.4,28.2,30.30,SSE,160,0.0,4.0,64,0.00,,---,0.00,VWS V14.00,2013-01-07 16:23:00,
2013-01-07 10:28:00,40.0,28.4,30.30,SSW,200,5.0,7.0,63,0.00,,---,0.00,VWS V14.00,2013-01-07 16:28:00,
2013-01-07 10:34:00,40.1,28.9,30.30,South,182,6.0,12.0,64,0.00,,---,0.00,VWS V14.00,2013-01-07 16:34:00,
2013-01-07 10:39:00,40.6,29.4,30.30,ESE,114,3.0,7.0,64,0.00,,---,0.00,VWS V14.00,2013-01-07 16:39:00,
2013-01-07 10:44:00,41.0,29.4,30.29,SE,127,2.0,9.0,63,0.00,,---,0.00,VWS V14.00,2013-01-07 16:44:00,
2013-01-07 10:49:00,41.3,29.7,30.29,SSW,196,0.0,1.0,63,0.00,,---,0.00,VWS V14.00,2013-01-07 16:49:00,
2013-01-07 10:55:00,42.4,29.5,30.28,SSW,198,7.0,11.0,60,0.00,,---,0.00,VWS V14.00,2013-01-07 16:55:00,
2013-01-07 11:01:00,43.1,30.2,30.28,South,188,5.0,10.0,60,0.00,,---,0.00,VWS V14.00,2013-01-07 17:01:00,
2013-01-07 11:06:00,43.3,30.0,30.28,SSW,194,3.0,12.0,59,0.00,,---,0.00,VWS V14.00,2013-01-07 17:06:00,
2013-01-07 11:11:00,43.9,30.1,30.27,SE,145,4.0,7.0,58,0.00,,---,0.00,VWS V14.00,2013-01-07 17:11:00,
2013-01-07 11:16:00,44.2,30.0,30.27,SW,215,0.0,11.0,57,0.00,,---,0.00,VWS V14.00,2013-01-07 17:16:00,
2013-01-07 11:22:00,44.5,29.8,30.27,SE,143,7.0,11.0,56,0.00,,---,0.00,VWS V14.00,2013-01-07 17:22:00,
2013-01-07 11:27:00,44.4,30.1,30.26,SSW,210,4.0,13.0,57,0.00,,---,0.00,VWS V14.00,2013-01-07 17:27:00,
2013-01-07 11:33:00,44.6,29.9,30.26,SSW,197,9.0,12.0,56,0.00,,---,0.00,VWS V14.00,2013-01-07 17:33:00,
2013-01-07 11:38:00,44.8,30.1,30.26,SSW,212,10.0,14.0,56,0.00,,---,0.00,VWS V14.00,2013-01-07 17:38:00,
2013-01-07 11:44:00,44.4,30.1,30.25,SSE,150,0.0,6.0,57,0.00,,---,0.00,VWS V14.00,2013-01-07 17:44:00,
2013-01-07 11:50:00,44.7,30.0,30.25,East,95,0.0,6.0,56,0.00,,---,0.00,VWS V14.00,2013-01-07 17:50:00,
2013-01-07 11:55:00,45.4,30.2,30.24,South,181,6.0,7.0,55,0.00,,---,0.00,VWS V14.00,2013-01-07 17:55:00,
2013-01-07 12:00:00,45.7,30.0,30.24,South,184,5.0,9.0,54,0.00,,---,0.00,VWS V14.00,2013-01-07 18:00:00,
2013-01-07 12:05:00,45.9,30.2,30.24,South,174,9.0,14.0,54,0.00,,---,0.00,VWS V14.00,2013-01-07 18:05:00,
2013-01-07 12:10:00,46.3,30.6,30.22,ESE,113,4.0,5.0,54,0.00,,---,0.00,VWS V14.00,2013-01-07 18:10:00,
2013-01-07 12:15:00,46.4,30.2,30.22,ESE,113,16.0,16.0,53,0.00,,---,0.00,VWS V14.00,2013-01-07 18:15:00,
2013-01-07 12:21:00,46.2,30.5,30.22,SE,129,4.0,4.0,54,0.00,,---,0.00,VWS V14.00,2013-01-07 18:21:00,
2013-01-07 12:27:00,46.5,30.3,30.21,SSW,193,2.0,9.0,53,0.00,,---,0.00,VWS V14.00,2013-01-07 18:27:00,
2013-01-07 12:33:00,46.0,30.3,30.21,South,188,5.0,15.0,54,0.00,,---,0.00,VWS V14.00,2013-01-07 18:33:00,
2013-01-07 12:39:00,46.1,30.4,30.21,South,177,1.0,7.0,54,0.00,,---,0.00,VWS V14.00,2013-01-07 18:39:00,
2013-01-07 12:44:00,46.3,30.6,30.20,South,183,0.0,5.0,54,0.00,,---,0.00,VWS V14.00,2013-01-07 18:44:00,
2013-01-07 12:50:00,46.7,30.5,30.20,SSW,202,9.0,11.0,53,0.00,,---,0.00,VWS V14.00,2013-01-07 18:50:00,
2013-01-07 12:55:00,46.9,30.7,30.19,SE,124,6.0,10.0,53,0.00,,---,0.00,VWS V14.00,2013-01-07 18:55:00,
2013-01-07 13:00:00,47.2,30.5,30.19,SE,128,1.0,6.0,52,0.00,,---,0.00,VWS V14.00,2013-01-07 19:00:00,
2013-01-07 13:06:00,47.7,31.0,30.19,South,186,3.0,5.0,52,0.00,,---,0.00,VWS V14.00,2013-01-07 19:06:00,
2013-01-07 13:11:00,49.1,31.3,30.18,South,174,0.0,0.0,50,0.00,,---,0.00,VWS V14.00,2013-01-07 19:11:00,
2013-01-07 13:17:00,49.9,31.0,30.18,South,182,2.0,5.0,48,0.00,,---,0.00,VWS V14.00,2013-01-07 19:17:00,
2013-01-07 13:22:00,50.1,30.7,30.18,SE,126,6.0,12.0,47,0.00,,---,0.00,VWS V14.00,2013-01-07 19:22:00,
2013-01-07 13:27:00,50.4,31.0,30.17,South,188,3.0,7.0,47,0.00,,---,0.00,VWS V14.00,2013-01-07 19:27:00,
2013-01-07 13:32:00,51.2,30.6,30.17,SE,144,3.0,9.0,45,0.00,,---,0.00,VWS V14.00,2013-01-07 19:32:00,
2013-01-07 13:37:00,51.4,30.8,30.17,SE,128,10.0,15.0,45,0.00,,---,0.00,VWS V14.00,2013-01-07 19:37:00,
2013-01-07 13:43:00,51.3,30.7,30.16,ESE,122,12.0,12.0,45,0.00,,---,0.00,VWS V14.00,2013-01-07 19:43:00,
2013-01-07 13:49:00,51.4,29.7,30.16,SSE,159,7.0,13.0,43,0.00,,---,0.00,VWS V14.00,2013-01-07 19:49:00,
2013-01-07 13:54:00,51.6,30.4,30.16,SSE,162,5.0,9.0,44,0.00,,---,0.00,VWS V14.00,2013-01-07 19:54:00,
2013-01-07 13:59:00,51.7,30.5,30.15,SE,142,6.0,9.0,44,0.00,,---,0.00,VWS V14.00,2013-01-07 19:59:00,
2013-01-07 14:04:00,51.1,30.0,30.15,SE,131,6.0,7.0,44,0.00,,---,0.00,VWS V14.00,2013-01-07 20:04:00,
2013-01-07 14:09:00,50.9,30.3,30.15,SE,138,13.0,13.0,45,0.00,,---,0.00,VWS V14.00,2013-01-07 20:09:00,
2013-01-07 14:14:00,51.3,30.1,30.15,South,191,9.0,11.0,44,0.00,,---,0.00,VWS V14.00,2013-01-07 20:14:00,
2013-01-07 14:15:00,51.7,29.4,30.15,South,174,4.0,11.0,42,0.00,,---,0.00,VWS V14.00,2013-01-07 20:15:00,
2013-01-07 14:16:00,51.8,29.5,30.15,South,176,5.0,11.0,42,0.00,,---,0.00,VWS V14.00,2013-01-07 20:16:00,
2013-01-07 14:19:00,52.0,30.2,30.15,South,186,4.0,12.0,43,0.00,,---,0.00,VWS V14.00,2013-01-07 20:19:00,
2013-01-07 14:20:00,52.0,29.6,30.15,SSW,192,3.0,10.0,42,0.00,,---,0.00,VWS V14.00,2013-01-07 20:20:00,
2013-01-07 14:22:00,52.0,29.6,30.15,SSW,199,0.0,10.0,42,0.00,,---,0.00,VWS V14.00,2013-01-07 20:22:00,
2013-01-07 14:24:00,52.2,29.8,30.15,South,191,2.0,9.0,42,0.00,,---,0.00,VWS V14.00,2013-01-07 20:24:00,
2013-01-07 14:27:00,51.7,29.4,30.15,South,170,0.0,10.0,42,0.00,,---,0.00,VWS V14.00,2013-01-07 20:27:00,
2013-01-07 14:29:00,51.7,29.9,30.15,ESE,111,10.0,12.0,43,0.00,,---,0.00,VWS V14.00,2013-01-07 20:29:00,
2013-01-07 14:31:00,51.6,29.9,30.15,SSW,198,3.0,12.0,43,0.00,,---,0.00,VWS V14.00,2013-01-07 20:31:00,
2013-01-07 14:33:00,52.1,29.7,30.15,South,169,0.0,6.0,42,0.00,,---,0.00,VWS V14.00,2013-01-07 20:33:00,
2013-01-07 14:37:00,51.9,30.1,30.15,SE,134,16.0,16.0,43,0.00,,---,0.00,VWS V14.00,2013-01-07 20:37:00,
2013-01-07 14:38:00,51.9,30.1,30.15,South,172,3.0,16.0,43,0.00,,---,0.00,VWS V14.00,2013-01-07 20:38:00,
2013-01-07 14:40:00,51.6,29.9,30.15,SE,144,5.0,12.0,43,0.00,,---,0.00,VWS V14.00,2013-01-07 20:40:00,
2013-01-07 14:43:00,52.0,30.2,30.15,SE,126,5.0,15.0,43,0.00,,---,0.00,VWS V14.00,2013-01-07 20:43:00,
2013-01-07 14:44:00,51.9,30.1,30.15,SE,140,4.0,14.0,43,0.00,,---,0.00,VWS V14.00,2013-01-07 20:44:00,
2013-01-07 14:46:00,51.8,30.0,30.15,SSW,205,9.0,9.0,43,0.00,,---,0.00,VWS V14.00,2013-01-07 20:46:00,
2013-01-07 14:48:00,52.1,30.3,30.14,SSW,198,8.0,12.0,43,0.00,,---,0.00,VWS V14.00,2013-01-07 20:48:00,
2013-01-07 14:49:00,52.1,29.7,30.14,South,180,0.0,8.0,42,0.00,,---,0.00,VWS V14.00,2013-01-07 20:49:00,
2013-01-07 14:50:00,52.3,30.5,30.14,South,175,10.0,16.0,43,0.00,,---,0.00,VWS V14.00,2013-01-07 20:50:00,
2013-01-07 14:51:00,51.9,30.1,30.15,SE,134,5.0,13.0,43,0.00,,---,0.00,VWS V14.00,2013-01-07 20:51:00,
2013-01-07 14:54:00,52.5,29.5,30.14,SSW,197,8.0,11.0,41,0.00,,---,0.00,VWS V14.00,2013-01-07 20:54:00,
2013-01-07 14:55:00,52.3,29.3,30.14,SSW,193,3.0,14.0,41,0.00,,---,0.00,VWS V14.00,2013-01-07 20:55:00,
2013-01-07 14:57:00,52.0,30.2,30.14,SE,138,3.0,11.0,43,0.00,,---,0.00,VWS V14.00,2013-01-07 20:57:00,
2013-01-07 15:03:00,52.5,29.5,30.14,South,185,5.0,8.0,41,0.00,,---,0.00,VWS V14.00,2013-01-07 21:03:00,
2013-01-07 15:08:00,51.9,29.5,30.14,SSW,194,0.0,11.0,42,0.00,,---,0.00,VWS V14.00,2013-01-07 21:08:00,
2013-01-07 15:14:00,51.9,30.1,30.14,ESE,115,9.0,11.0,43,0.00,,---,0.00,VWS V14.00,2013-01-07 21:14:00,
2013-01-07 15:19:00,51.7,30.5,30.14,SE,129,0.0,7.0,44,0.00,,---,0.00,VWS V14.00,2013-01-07 21:19:00,
2013-01-07 15:25:00,51.6,30.4,30.14,SE,129,9.0,12.0,44,0.00,,---,0.00,VWS V14.00,2013-01-07 21:25:00,
2013-01-07 15:30:00,51.4,30.2,30.14,South,182,3.0,8.0,44,0.00,,---,0.00,VWS V14.00,2013-01-07 21:30:00,
2013-01-07 15:36:00,51.3,30.1,30.14,South,191,6.0,9.0,44,0.00,,---,0.00,VWS V14.00,2013-01-07 21:36:00,
2013-01-07 15:41:00,51.2,30.0,30.14,SSE,147,3.0,9.0,44,0.00,,---,0.00,VWS V14.00,2013-01-07 21:41:00,
2013-01-07 15:47:00,51.3,30.1,30.14,SE,139,5.0,5.0,44,0.00,,---,0.00,VWS V14.00,2013-01-07 21:47:00,
2013-01-07 15:52:00,51.3,30.1,30.14,SSW,198,0.0,4.0,44,0.00,,---,0.00,VWS V14.00,2013-01-07 21:52:00,
2013-01-07 15:57:00,51.3,29.6,30.13,SSE,148,0.0,4.0,43,0.00,,---,0.00,VWS V14.00,2013-01-07 21:57:00,
2013-01-07 16:02:00,51.3,29.6,30.13,SSE,162,4.0,6.0,43,0.00,,---,0.00,VWS V14.00,2013-01-07 22:02:00,
2013-01-07 16:07:00,51.3,29.6,30.13,SE,133,2.0,4.0,43,0.00,,---,0.00,VWS V14.00,2013-01-07 22:07:00,
2013-01-07 16:12:00,51.3,29.6,30.13,SE,138,0.0,0.0,43,0.00,,---,0.00,VWS V14.00,2013-01-07 22:12:00,
2013-01-07 16:18:00,51.3,29.6,30.13,SSE,149,0.0,7.0,43,0.00,,---,0.00,VWS V14.00,2013-01-07 22:18:00,
2013-01-07 16:23:00,51.2,29.5,30.13,ESE,121,1.0,6.0,43,0.00,,---,0.00,VWS V14.00,2013-01-07 22:23:00,
2013-01-07 16:28:00,51.0,29.9,30.13,SE,132,0.0,0.0,44,0.00,,---,0.00,VWS V14.00,2013-01-07 22:28:00,
2013-01-07 16:33:00,50.9,29.8,30.13,SE,134,0.0,0.0,44,0.00,,---,0.00,VWS V14.00,2013-01-07 22:33:00,
2013-01-07 16:38:00,50.8,29.7,30.13,SSE,159,0.0,3.0,44,0.00,,---,0.00,VWS V14.00,2013-01-07 22:38:00,
2013-01-07 16:43:00,50.7,29.6,30.13,SE,144,0.0,5.0,44,0.00,,---,0.00,VWS V14.00,2013-01-07 22:43:00,
2013-01-07 16:48:00,50.6,30.1,30.13,South,169,0.0,4.0,45,0.00,,---,0.00,VWS V14.00,2013-01-07 22:48:00,
2013-01-07 16:53:00,50.4,29.9,30.13,South,179,0.0,12.0,45,0.00,,---,0.00,VWS V14.00,2013-01-07 22:53:00,
2013-01-07 16:59:00,50.3,29.8,30.13,SE,124,0.0,2.0,45,0.00,,---,0.00,VWS V14.00,2013-01-07 22:59:00,
2013-01-07 17:04:00,50.1,30.1,30.13,SE,124,4.0,4.0,46,0.00,,---,0.00,VWS V14.00,2013-01-07 23:04:00,
2013-01-07 17:10:00,49.9,30.0,30.14,SSE,156,0.0,0.0,46,0.00,,---,0.00,VWS V14.00,2013-01-07 23:10:00,
2013-01-07 17:16:00,49.6,30.2,30.14,South,182,0.0,0.0,47,0.00,,---,0.00,VWS V14.00,2013-01-07 23:16:00,
2013-01-07 17:21:00,49.5,30.1,30.14,South,176,0.0,0.0,47,0.00,,---,0.00,VWS V14.00,2013-01-07 23:21:00,
2013-01-07 17:27:00,49.2,29.9,30.14,South,175,0.0,0.0,47,0.00,,---,0.00,VWS V14.00,2013-01-07 23:27:00,
2013-01-07 17:32:00,49.1,30.3,30.14,South,176,0.0,0.0,48,0.00,,---,0.00,VWS V14.00,2013-01-07 23:32:00,
2013-01-07 17:37:00,49.0,30.2,30.14,South,176,0.0,0.0,48,0.00,,---,0.00,VWS V14.00,2013-01-07 23:37:00,
2013-01-07 17:42:00,48.8,30.0,30.13,South,176,0.0,0.0,48,0.00,,---,0.00,VWS V14.00,2013-01-07 23:42:00,
2013-01-07 17:47:00,48.5,30.2,30.13,South,172,0.0,0.0,49,0.00,,---,0.00,VWS V14.00,2013-01-07 23:47:00,
2013-01-07 17:52:00,48.3,30.0,30.13,South,172,0.0,0.0,49,0.00,,---,0.00,VWS V14.00,2013-01-07 23:52:00,
2013-01-07 17:58:00,48.1,29.9,30.13,South,172,0.0,0.0,49,0.00,,---,0.00,VWS V14.00,2013-01-07 23:58:00,
2013-01-07 18:03:00,47.9,30.2,30.13,South,172,0.0,0.0,50,0.00,,---,0.00,VWS V14.00,2013-01-08 00:03:00,
2013-01-07 18:09:00,47.8,30.1,30.13,South,172,0.0,0.0,50,0.00,,---,0.00,VWS V14.00,2013-01-08 00:09:00,
2013-01-07 18:15:00,47.7,30.0,30.14,South,169,0.0,0.0,50,0.00,,---,0.00,VWS V14.00,2013-01-08 00:15:00,
2013-01-07 18:20:00,47.5,30.3,30.14,South,169,0.0,0.0,51,0.00,,---,0.00,VWS V14.00,2013-01-08 00:20:00,
2013-01-07 18:26:00,47.3,30.1,30.14,SE,131,0.0,4.0,51,0.00,,---,0.00,VWS V14.00,2013-01-08 00:26:00,
2013-01-07 18:31:00,47.1,29.9,30.14,SE,134,0.0,0.0,51,0.00,,---,0.00,VWS V14.00,2013-01-08 00:31:00,
2013-01-07 18:36:00,47.0,29.8,30.14,SE,134,0.0,0.0,51,0.00,,---,0.00,VWS V14.00,2013-01-08 00:36:00,
2013-01-07 18:42:00,46.8,29.6,30.14,SE,133,0.0,0.0,51,0.00,,---,0.00,VWS V14.00,2013-01-08 00:42:00,
2013-01-07 18:47:00,46.7,30.0,30.14,SE,133,0.0,0.0,52,0.00,,---,0.00,VWS V14.00,2013-01-08 00:47:00,
2013-01-07 18:52:00,46.5,29.8,30.14,SE,132,0.0,0.0,52,0.00,,---,0.00,VWS V14.00,2013-01-08 00:52:00,
2013-01-07 18:57:00,46.2,30.0,30.13,SE,132,0.0,0.0,53,0.00,,---,0.00,VWS V14.00,2013-01-08 00:57:00,
2013-01-07 19:02:00,45.8,29.7,30.13,SE,132,0.0,4.0,53,0.00,,---,0.00,VWS V14.00,2013-01-08 01:02:00,
2013-01-07 19:07:00,45.6,29.9,30.13,SE,131,0.0,0.0,54,0.00,,---,0.00,VWS V14.00,2013-01-08 01:07:00,
2013-01-07 19:12:00,45.4,29.7,30.13,SE,131,0.0,0.0,54,0.00,,---,0.00,VWS V14.00,2013-01-08 01:12:00,
2013-01-07 19:17:00,45.2,30.0,30.13,SE,131,0.0,0.0,55,0.00,,---,0.00,VWS V14.00,2013-01-08 01:17:00,
2013-01-07 19:22:00,45.0,29.8,30.13,SE,131,0.0,0.0,55,0.00,,---,0.00,VWS V14.00,2013-01-08 01:22:00,
2013-01-07 19:27:00,44.9,29.7,30.13,SE,133,0.0,0.0,55,0.00,,---,0.00,VWS V14.00,2013-01-08 01:27:00,
2013-01-07 19:33:00,44.9,29.7,30.13,SE,133,0.0,0.0,55,0.00,,---,0.00,VWS V14.00,2013-01-08 01:33:00,
2013-01-07 19:38:00,44.9,30.2,30.13,SE,132,0.0,0.0,56,0.00,,---,0.00,VWS V14.00,2013-01-08 01:38:00,
2013-01-07 19:43:00,44.8,30.1,30.12,South,173,0.0,0.0,56,0.00,,---,0.00,VWS V14.00,2013-01-08 01:43:00,
2013-01-07 19:49:00,44.7,30.0,30.12,South,175,0.0,0.0,56,0.00,,---,0.00,VWS V14.00,2013-01-08 01:49:00,
2013-01-07 19:54:00,44.7,30.0,30.12,South,172,0.0,0.0,56,0.00,,---,0.00,VWS V14.00,2013-01-08 01:54:00,
2013-01-07 19:59:00,44.7,30.0,30.11,South,170,0.0,0.0,56,0.00,,---,0.00,VWS V14.00,2013-01-08 01:59:00,
2013-01-07 20:05:00,44.8,30.1,30.11,South,169,0.0,0.0,56,0.00,,---,0.00,VWS V14.00,2013-01-08 02:05:00,
2013-01-07 20:10:00,44.9,29.7,30.11,South,169,0.0,0.0,55,0.00,,---,0.00,VWS V14.00,2013-01-08 02:10:00,
2013-01-07 20:15:00,45.0,29.8,30.11,South,173,0.0,0.0,55,0.00,,---,0.00,VWS V14.00,2013-01-08 02:15:00,
2013-01-07 20:20:00,45.0,29.8,30.11,South,174,0.0,0.0,55,0.00,,---,0.00,VWS V14.00,2013-01-08 02:20:00,
2013-01-07 20:25:00,44.8,30.1,30.12,South,174,0.0,0.0,56,0.00,,---,0.00,VWS V14.00,2013-01-08 02:25:00,
2013-01-07 20:30:00,44.7,30.0,30.12,South,174,0.0,0.0,56,0.00,,---,0.00,VWS V14.00,2013-01-08 02:30:00,
2013-01-07 20:35:00,44.6,29.9,30.12,South,177,4.0,5.0,56,0.00,,---,0.00,VWS V14.00,2013-01-08 02:35:00,
2013-01-07 20:41:00,44.6,29.9,30.12,SSW,194,2.0,6.0,56,0.00,,---,0.00,VWS V14.00,2013-01-08 02:41:00,
2013-01-07 20:47:00,44.4,30.1,30.12,SSW,194,0.0,0.0,57,0.00,,---,0.00,VWS V14.00,2013-01-08 02:47:00,
2013-01-07 20:53:00,43.9,30.1,30.12,SSW,193,0.0,0.0,58,0.00,,---,0.00,VWS V14.00,2013-01-08 02:53:00,
2013-01-07 20:58:00,43.5,29.7,30.11,SSW,193,0.0,0.0,58,0.00,,---,0.00,VWS V14.00,2013-01-08 02:58:00,
2013-01-07 21:03:00,43.3,30.0,30.11,SSW,193,0.0,0.0,59,0.00,,---,0.00,VWS V14.00,2013-01-08 03:03:00,
2013-01-07 21:08:00,43.1,29.8,30.11,SSW,193,0.0,0.0,59,0.00,,---,0.00,VWS V14.00,2013-01-08 03:08:00,
2013-01-07 21:13:00,42.9,30.0,30.11,SSW,193,0.0,0.0,60,0.00,,---,0.00,VWS V14.00,2013-01-08 03:13:00,
2013-01-07 21:18:00,42.9,30.0,30.11,SSW,193,0.0,0.0,60,0.00,,---,0.00,VWS V14.00,2013-01-08 03:18:00,
2013-01-07 21:23:00,42.9,30.0,30.11,SSW,193,0.0,0.0,60,0.00,,---,0.00,VWS V14.00,2013-01-08 03:23:00,
2013-01-07 21:28:00,43.0,30.1,30.11,SSW,193,0.0,0.0,60,0.00,,---,0.00,VWS V14.00,2013-01-08 03:28:00,
2013-01-07 21:34:00,43.2,29.9,30.11,South,190,0.0,0.0,59,0.00,,---,0.00,VWS V14.00,2013-01-08 03:34:00,
2013-01-07 21:40:00,43.1,30.2,30.11,South,188,0.0,0.0,60,0.00,,---,0.00,VWS V14.00,2013-01-08 03:40:00,
2013-01-07 21:45:00,42.9,30.0,30.11,South,176,0.0,0.0,60,0.00,,---,0.00,VWS V14.00,2013-01-08 03:45:00,
2013-01-07 21:50:00,42.8,29.9,30.11,South,172,0.0,0.0,60,0.00,,---,0.00,VWS V14.00,2013-01-08 03:50:00,
2013-01-07 21:55:00,42.8,29.9,30.11,South,176,1.0,3.0,60,0.00,,---,0.00,VWS V14.00,2013-01-08 03:55:00,
2013-01-07 22:00:00,42.7,29.8,30.11,South,169,0.0,0.0,60,0.00,,---,0.00,VWS V14.00,2013-01-08 04:00:00,
2013-01-07 22:06:00,42.7,29.8,30.11,South,169,0.0,0.0,60,0.00,,---,0.00,VWS V14.00,2013-01-08 04:06:00,
2013-01-07 22:11:00,42.8,29.9,30.10,South,169,0.0,0.0,60,0.00,,---,0.00,VWS V14.00,2013-01-08 04:11:00,
2013-01-07 22:16:00,42.6,29.7,30.10,South,169,0.0,0.0,60,0.00,,---,0.00,VWS V14.00,2013-01-08 04:16:00,
2013-01-07 22:21:00,42.3,29.8,30.10,South,169,0.0,0.0,61,0.00,,---,0.00,VWS V14.00,2013-01-08 04:21:00,
2013-01-07 22:26:00,42.0,29.5,30.10,South,169,0.0,0.0,61,0.00,,---,0.00,VWS V14.00,2013-01-08 04:26:00,
2013-01-07 22:31:00,41.8,29.8,30.10,South,169,0.0,0.0,62,0.00,,---,0.00,VWS V14.00,2013-01-08 04:31:00,
2013-01-07 22:36:00,41.7,29.7,30.10,South,169,0.0,0.0,62,0.00,,---,0.00,VWS V14.00,2013-01-08 04:36:00,
2013-01-07 22:42:00,41.4,29.8,30.10,South,169,0.0,0.0,63,0.00,,---,0.00,VWS V14.00,2013-01-08 04:42:00,
2013-01-07 22:47:00,41.1,29.5,30.10,South,169,0.0,0.0,63,0.00,,---,0.00,VWS V14.00,2013-01-08 04:47:00,
2013-01-07 22:51:00,40.5,29.7,30.09,SSE,167,0.0,0.0,65,0.00,,---,0.00,VWS V14.00,2013-01-08 04:51:00,
2013-01-07 22:53:00,40.9,29.7,30.10,SSE,167,0.0,0.0,64,0.00,,---,0.00,VWS V14.00,2013-01-08 04:53:00,
2013-01-07 22:54:00,40.4,29.6,30.09,South,172,0.0,0.0,65,0.00,,---,0.00,VWS V14.00,2013-01-08 04:54:00,
2013-01-07 22:55:00,40.4,29.6,30.09,South,172,0.0,0.0,65,0.00,,---,0.00,VWS V14.00,2013-01-08 04:55:00,
2013-01-07 22:56:00,40.4,29.6,30.09,South,172,0.0,1.0,65,0.00,,---,0.00,VWS V14.00,2013-01-08 04:56:00,
2013-01-07 22:57:00,40.4,29.6,30.09,South,172,0.0,2.0,65,0.00,,---,0.00,VWS V14.00,2013-01-08 04:57:00,
2013-01-07 22:58:00,40.6,29.8,30.09,SSE,166,0.0,0.0,65,0.00,,---,0.00,VWS V14.00,2013-01-08 04:58:00,
2013-01-07 22:59:00,40.5,29.7,30.09,South,172,0.0,0.0,65,0.00,,---,0.00,VWS V14.00,2013-01-08 04:59:00,
2013-01-07 23:00:00,40.5,29.7,30.10,South,172,0.0,3.0,65,0.00,,---,0.00,VWS V14.00,2013-01-08 05:00:00,
2013-01-07 23:01:00,40.5,29.7,30.10,South,172,1.0,3.0,65,0.00,,---,0.00,VWS V14.00,2013-01-08 05:01:00,
2013-01-07 23:02:00,40.6,29.8,30.10,South,172,0.0,2.0,65,0.00,,---,0.00,VWS V14.00,2013-01-08 05:02:00,
2013-01-07 23:03:00,40.6,29.8,30.10,South,179,3.0,4.0,65,0.00,,---,0.00,VWS V14.00,2013-01-08 05:03:00,
2013-01-07 23:04:00,40.6,29.8,30.10,South,179,0.0,3.0,65,0.00,,---,0.00,VWS V14.00,2013-01-08 05:04:00,
2013-01-07 23:05:00,40.6,29.8,30.10,South,178,0.0,0.0,65,0.00,,---,0.00,VWS V14.00,2013-01-08 05:05:00,
2013-01-07 23:06:00,40.6,29.4,30.10,South,178,0.0,0.0,64,0.00,,---,0.00,VWS V14.00,2013-01-08 05:06:00,
2013-01-07 23:07:00,40.7,29.5,30.10,South,179,0.0,0.0,64,0.00,,---,0.00,VWS V14.00,2013-01-08 05:07:00,
2013-01-07 23:08:00,40.6,29.4,30.10,South,179,0.0,0.0,64,0.00,,---,0.00,VWS V14.00,2013-01-08 05:08:00,
2013-01-07 23:09:00,40.6,29.4,30.10,South,178,0.0,0.0,64,0.00,,---,0.00,VWS V14.00,2013-01-08 05:09:00,
2013-01-07 23:10:00,40.6,29.4,30.10,South,178,0.0,0.0,64,0.00,,---,0.00,VWS V14.00,2013-01-08 05:10:00,
2013-01-07 23:11:00,40.6,29.8,30.10,South,178,0.0,0.0,65,0.00,,---,0.00,VWS V14.00,2013-01-08 05:11:00,
2013-01-07 23:12:00,40.6,29.8,30.10,South,178,0.0,0.0,65,0.00,,---,0.00,VWS V14.00,2013-01-08 05:12:00,
2013-01-07 23:13:00,40.5,29.7,30.10,South,179,0.0,0.0,65,0.00,,---,0.00,VWS V14.00,2013-01-08 05:13:00,
2013-01-07 23:14:00,40.5,29.7,30.10,South,179,0.0,3.0,65,0.00,,---,0.00,VWS V14.00,2013-01-08 05:14:00,
2013-01-07 23:15:00,40.5,29.7,30.10,South,179,0.0,0.0,65,0.00,,---,0.00,VWS V14.00,2013-01-08 05:15:00,
2013-01-07 23:16:00,40.5,29.7,30.10,South,179,0.0,0.0,65,0.00,,---,0.00,VWS V14.00,2013-01-08 05:16:00,
2013-01-07 23:17:00,40.4,29.6,30.10,South,179,0.0,0.0,65,0.00,,---,0.00,VWS V14.00,2013-01-08 05:17:00,
2013-01-07 23:18:00,40.4,29.6,30.10,South,178,0.0,0.0,65,0.00,,---,0.00,VWS V14.00,2013-01-08 05:18:00,
2013-01-07 23:19:00,40.4,29.6,30.10,South,178,0.0,0.0,65,0.00,,---,0.00,VWS V14.00,2013-01-08 05:19:00,
2013-01-07 23:20:00,40.3,29.5,30.10,South,178,0.0,0.0,65,0.00,,---,0.00,VWS V14.00,2013-01-08 05:20:00,
2013-01-07 23:21:00,40.2,29.4,30.10,South,178,0.0,0.0,65,0.00,,---,0.00,VWS V14.00,2013-01-08 05:21:00,
2013-01-07 23:22:00,40.2,29.4,30.10,South,178,0.0,0.0,65,0.00,,---,0.00,VWS V14.00,2013-01-08 05:22:00,
2013-01-07 23:23:00,40.2,29.4,30.10,South,178,0.0,0.0,65,0.00,,---,0.00,VWS V14.00,2013-01-08 05:23:00,
2013-01-07 23:24:00,40.1,29.3,30.10,South,178,0.0,0.0,65,0.00,,---,0.00,VWS V14.00,2013-01-08 05:24:00,
2013-01-07 23:25:00,40.1,29.3,30.10,South,178,0.0,0.0,65,0.00,,---,0.00,VWS V14.00,2013-01-08 05:25:00,
2013-01-07 23:26:00,40.0,29.6,30.10,South,176,0.0,2.0,66,0.00,,---,0.00,VWS V14.00,2013-01-08 05:26:00,
2013-01-07 23:27:00,40.0,29.6,30.10,South,176,0.0,0.0,66,0.00,,---,0.00,VWS V14.00,2013-01-08 05:27:00,
2013-01-07 23:28:00,40.0,29.6,30.10,South,176,0.0,0.0,66,0.00,,---,0.00,VWS V14.00,2013-01-08 05:28:00,
2013-01-07 23:29:00,39.9,29.5,30.10,South,176,0.0,0.0,66,0.00,,---,0.00,VWS V14.00,2013-01-08 05:29:00,
2013-01-07 23:30:00,39.9,29.5,30.09,South,176,0.0,0.0,66,0.00,,---,0.00,VWS V14.00,2013-01-08 05:30:00,
2013-01-07 23:31:00,39.8,29.4,30.09,South,176,0.0,0.0,66,0.00,,---,0.00,VWS V14.00,2013-01-08 05:31:00,
2013-01-07 23:32:00,39.7,29.3,30.09,South,176,0.0,0.0,66,0.00,,---,0.00,VWS V14.00,2013-01-08 05:32:00,
2013-01-07 23:33:00,39.7,29.3,30.09,South,176,0.0,0.0,66,0.00,,---,0.00,VWS V14.00,2013-01-08 05:33:00,
2013-01-07 23:34:00,39.6,29.2,30.09,South,176,0.0,0.0,66,0.00,,---,0.00,VWS V14.00,2013-01-08 05:34:00,
2013-01-07 23:35:00,39.6,29.2,30.09,South,176,0.0,0.0,66,0.00,,---,0.00,VWS V14.00,2013-01-08 05:35:00,
2013-01-07 23:36:00,39.5,29.1,30.09,South,176,0.0,0.0,66,0.00,,---,0.00,VWS V14.00,2013-01-08 05:36:00,
2013-01-07 23:37:00,39.5,29.1,30.09,South,176,0.0,0.0,66,0.00,,---,0.00,VWS V14.00,2013-01-08 05:37:00,
2013-01-07 23:38:00,39.5,29.5,30.09,South,176,0.0,0.0,67,0.00,,---,0.00,VWS V14.00,2013-01-08 05:38:00,
2013-01-07 23:39:00,39.4,29.4,30.09,South,177,0.0,0.0,67,0.00,,---,0.00,VWS V14.00,2013-01-08 05:39:00,
2013-01-07 23:40:00,39.4,29.4,30.09,South,176,0.0,0.0,67,0.00,,---,0.00,VWS V14.00,2013-01-08 05:40:00,
2013-01-07 23:41:00,39.3,29.3,30.09,South,176,0.0,0.0,67,0.00,,---,0.00,VWS V14.00,2013-01-08 05:41:00,
2013-01-07 23:42:00,39.3,29.3,30.09,South,176,0.0,0.0,67,0.00,,---,0.00,VWS V14.00,2013-01-08 05:42:00,
2013-01-07 23:43:00,39.3,29.3,30.09,South,176,0.0,0.0,67,0.00,,---,0.00,VWS V14.00,2013-01-08 05:43:00,
2013-01-07 23:44:00,39.2,29.2,30.09,South,176,0.0,0.0,67,0.00,,---,0.00,VWS V14.00,2013-01-08 05:44:00,
2013-01-07 23:45:00,39.2,29.2,30.09,South,176,0.0,0.0,67,0.00,,---,0.00,VWS V14.00,2013-01-08 05:45:00,
2013-01-07 23:46:00,39.2,29.2,30.09,South,176,0.0,0.0,67,0.00,,---,0.00,VWS V14.00,2013-01-08 05:46:00,
2013-01-07 23:47:00,39.2,29.2,30.09,South,176,0.0,0.0,67,0.00,,---,0.00,VWS V14.00,2013-01-08 05:47:00,
2013-01-07 23:48:00,39.2,29.2,30.09,South,176,0.0,1.0,67,0.00,,---,0.00,VWS V14.00,2013-01-08 05:48:00,
2013-01-07 23:49:00,39.2,29.2,30.09,South,176,0.0,0.0,67,0.00,,---,0.00,VWS V14.00,2013-01-08 05:49:00,
2013-01-07 23:52:00,39.1,29.5,30.09,South,176,0.0,0.0,68,0.00,,---,0.00,VWS V14.00,2013-01-08 05:52:00,
2013-01-07 23:53:00,39.1,29.5,30.09,South,175,0.0,0.0,68,0.00,,---,0.00,VWS V14.00,2013-01-08 05:53:00,
2013-01-07 23:55:00,39.1,29.5,30.09,South,174,0.0,0.0,68,0.00,,---,0.00,VWS V14.00,2013-01-08 05:55:00,
2013-01-07 23:56:00,39.1,29.5,30.09,South,174,0.0,0.0,68,0.00,,---,0.00,VWS V14.00,2013-01-08 05:56:00,
2013-01-07 23:57:00,39.0,29.4,30.09,South,174,0.0,0.0,68,0.00,,---,0.00,VWS V14.00,2013-01-08 05:57:00,
2013-01-07 23:59:00,38.9,29.2,30.09,South,174,0.0,0.0,68,0.00,,---,0.00,VWS V14.00,2013-01-08 05:59:00,